^^
Station Historical Data
Daily Summary for May 21, 2017 Units:  English    Metric   Both
« Previous Day
Next Day »
Daily Weekly Monthly Yearly Custom
  High: Low: Average:
Temperature: 69.5 °F 47.2 °F 59.7 °F
Dew Point: 49.3 °F 35.6 °F 42.8 °F
Humidity: 93 % 33 % 59 %
Wind Speed: 6.8 mph 0.0 mph 0.7 mph
Wind Gust: 17.3 mph - -
Wind:- - South
Pressure: 30.37 in 30.21 in -
Precipitation: 0.00 in    
Historical Graphs
 
 
Tabular Data for May 21, 2017
Time Temperature Dew Point Pressure Wind Wind Speed Wind Gust Humidity Rainfall Rate (Hourly) solar Conditions
00:00 52.3 °F 49.2 °F 30.33 in Calm     89 % 0.00 in 0.0 W/m2 CLR
00:05 52.1 °F 49.0 °F 30.33 in Calm     89 % 0.00 in 0.0 W/m2 RA
00:10 52.0 °F 48.9 °F 30.33 in Calm     89 % 0.00 in 0.0 W/m2 FEW
00:15 51.9 °F 49.1 °F 30.33 in Calm     90 % 0.00 in 0.0 W/m2 FEW
00:20 52.0 °F 49.2 °F 30.33 in Calm     90 % 0.00 in 0.0 W/m2 FEW
00:25 52.1 °F 49.3 °F 30.33 in Calm     90 % 0.00 in 0.0 W/m2 FEW
00:30 51.9 °F 49.1 °F 30.33 in Calm     90 % 0.00 in 0.0 W/m2 FEW
00:35 51.7 °F 48.9 °F 30.33 in Calm     90 % 0.00 in 0.0 W/m2 FEW
00:40 51.5 °F 48.7 °F 30.32 in Calm     90 % 0.00 in 0.0 W/m2 FEW
00:45 51.4 °F 48.6 °F 30.32 in Calm     90 % 0.00 in 0.0 W/m2 FEW
00:50 51.3 °F 48.5 °F 30.32 in Calm     90 % 0.00 in 0.0 W/m2 FEW
00:55 51.1 °F 48.3 °F 30.32 in Calm     90 % 0.00 in 0.0 W/m2 FEW
01:00 51.1 °F 48.3 °F 30.32 in Calm     90 % 0.00 in 0.0 W/m2 FEW
01:05 51.3 °F 48.5 °F 30.31 in Calm     90 % 0.00 in 0.0 W/m2 CLR
01:10 51.1 °F 48.3 °F 30.31 in Calm     90 % 0.00 in 0.0 W/m2 CLR
01:15 51.1 °F 48.3 °F 30.32 in Calm     90 % 0.00 in 0.0 W/m2 CLR
01:20 50.8 °F 48.0 °F 30.32 in Calm     90 % 0.00 in 0.0 W/m2 CLR
01:25 50.6 °F 47.8 °F 30.32 in Calm     90 % 0.00 in 0.0 W/m2 CLR
01:30 50.3 °F 47.5 °F 30.32 in Calm     90 % 0.00 in 0.0 W/m2 CLR
01:35 50.1 °F 47.6 °F 30.32 in Calm     91 % 0.00 in 0.0 W/m2 CLR
01:40 50.2 °F 47.7 °F 30.32 in Calm     91 % 0.00 in 0.0 W/m2 CLR
01:45 50.2 °F 47.7 °F 30.33 in Calm     91 % 0.00 in 0.0 W/m2 CLR
01:50 50.1 °F 47.6 °F 30.32 in Calm     91 % 0.00 in 0.0 W/m2 CLR
01:55 50.0 °F 47.5 °F 30.33 in Calm     91 % 0.00 in 0.0 W/m2 CLR
02:00 49.9 °F 47.4 °F 30.33 in Calm     91 % 0.00 in 0.0 W/m2 CLR
02:05 49.9 °F 47.4 °F 30.32 in Calm     91 % 0.00 in 0.0 W/m2 CLR
02:10 49.8 °F 47.3 °F 30.33 in Calm     91 % 0.00 in 0.0 W/m2 CLR
02:15 49.8 °F 47.3 °F 30.33 in Calm     91 % 0.00 in 0.0 W/m2 CLR
02:20 49.7 °F 47.2 °F 30.33 in Calm     91 % 0.00 in 0.0 W/m2 CLR
02:25 49.7 °F 47.2 °F 30.32 in Calm     91 % 0.00 in 0.0 W/m2 CLR
02:30 49.7 °F 47.2 °F 30.32 in Calm     91 % 0.00 in 0.0 W/m2 CLR
02:35 49.6 °F 47.1 °F 30.32 in Calm     91 % 0.00 in 0.0 W/m2 CLR
02:40 49.5 °F 47.0 °F 30.32 in Calm     91 % 0.00 in 0.0 W/m2 CLR
02:45 49.3 °F 46.8 °F 30.32 in Calm     91 % 0.00 in 0.0 W/m2 CLR
02:56 49.4 °F 46.9 °F 30.32 in Calm     91 % 0.00 in 0.0 W/m2 CLR
03:01 49.0 °F 46.5 °F 30.33 in Calm     91 % 0.00 in 0.0 W/m2 CLR
03:06 49.0 °F 46.5 °F 30.33 in Calm     91 % 0.00 in 0.0 W/m2 CLR
03:11 48.7 °F 46.2 °F 30.33 in Calm     91 % 0.00 in 0.0 W/m2 CLR
03:16 48.6 °F 46.1 °F 30.33 in Calm     91 % 0.00 in 0.0 W/m2 CLR
03:21 48.7 °F 46.2 °F 30.33 in Calm     91 % 0.00 in 0.0 W/m2 CLR
03:26 48.8 °F 46.6 °F 30.33 in Calm     92 % 0.00 in 0.0 W/m2 CLR
03:31 48.8 °F 46.6 °F 30.32 in Calm     92 % 0.00 in 0.0 W/m2 CLR
03:36 48.7 °F 46.5 °F 30.33 in Calm     92 % 0.00 in 0.0 W/m2 CLR
03:41 48.6 °F 46.4 °F 30.33 in Calm     92 % 0.00 in 0.0 W/m2 CLR
03:46 48.5 °F 46.3 °F 30.32 in Calm     92 % 0.00 in 0.0 W/m2 CLR
03:51 48.6 °F 46.4 °F 30.32 in Calm     92 % 0.00 in 0.0 W/m2 CLR
03:56 48.6 °F 46.4 °F 30.32 in Calm     92 % 0.00 in 0.0 W/m2 CLR
04:01 48.4 °F 46.2 °F 30.32 in Calm     92 % 0.00 in 0.0 W/m2 CLR
04:06 48.3 °F 46.1 °F 30.32 in Calm     92 % 0.00 in 0.0 W/m2 CLR
04:11 48.2 °F 46.0 °F 30.33 in Calm     92 % 0.00 in 0.0 W/m2 CLR
04:16 47.9 °F 45.7 °F 30.33 in Calm     92 % 0.00 in 0.0 W/m2 CLR
04:21 47.9 °F 45.7 °F 30.33 in Calm     92 % 0.00 in 0.0 W/m2 CLR
04:26 47.8 °F 45.6 °F 30.34 in Calm     92 % 0.00 in 0.0 W/m2 CLR
04:31 47.9 °F 45.7 °F 30.33 in Calm     92 % 0.00 in 0.0 W/m2 CLR
04:36 48.1 °F 45.9 °F 30.33 in Calm     92 % 0.00 in 0.0 W/m2 CLR
04:41 48.1 °F 45.9 °F 30.33 in Calm     92 % 0.00 in 0.0 W/m2 CLR
04:46 48.0 °F 45.8 °F 30.33 in Calm     92 % 0.00 in 0.0 W/m2 CLR
04:51 47.7 °F 45.5 °F 30.33 in Calm     92 % 0.00 in 0.0 W/m2 CLR
04:56 47.6 °F 45.4 °F 30.34 in Calm     92 % 0.00 in 0.0 W/m2 CLR
05:01 47.5 °F 45.3 °F 30.34 in Calm     92 % 0.00 in 0.0 W/m2 CLR
05:06 47.4 °F 45.2 °F 30.34 in Calm     92 % 0.00 in 0.0 W/m2 CLR
05:11 47.2 °F 45.0 °F 30.34 in Calm     92 % 0.00 in 0.0 W/m2 CLR
05:16 47.2 °F 45.0 °F 30.34 in Calm     92 % 0.00 in 0.0 W/m2 CLR
05:21 47.2 °F 45.0 °F 30.34 in Calm     92 % 0.00 in 0.0 W/m2 CLR
05:26 47.3 °F 45.1 °F 30.34 in Calm     92 % 0.00 in 0.0 W/m2 CLR
05:32 47.4 °F 45.2 °F 30.34 in Calm     92 % 0.00 in 0.0 W/m2 CLR
05:37 47.7 °F 45.8 °F 30.34 in Calm     93 % 0.00 in 0.0 W/m2 CLR
05:42 47.7 °F 45.5 °F 30.34 in Calm     92 % 0.00 in 0.0 W/m2 CLR
05:47 47.6 °F 45.4 °F 30.34 in Calm     92 % 0.00 in 0.0 W/m2 CLR
05:52 47.8 °F 45.6 °F 30.34 in Calm     92 % 0.00 in 5.0 W/m2 CLR
05:57 47.7 °F 45.5 °F 30.33 in Calm     92 % 0.00 in 9.0 W/m2 CLR
06:02 47.9 °F 45.7 °F 30.33 in Calm     92 % 0.00 in 12.0 W/m2 CLR
06:07 48.0 °F 45.8 °F 30.32 in Calm     92 % 0.00 in 16.0 W/m2 CLR
06:12 48.2 °F 46.0 °F 30.32 in Calm     92 % 0.00 in 19.0 W/m2 CLR
06:14 48.2 °F 46.0 °F 30.32 in Calm     92 % 0.00 in 21.0 W/m2 CLR
06:19 48.4 °F 46.2 °F 30.32 in Calm     92 % 0.00 in 25.0 W/m2 CLR
06:24 48.4 °F 46.2 °F 30.32 in Calm     92 % 0.00 in 28.0 W/m2 CLR
06:29 48.7 °F 46.5 °F 30.32 in Calm     92 % 0.00 in 30.0 W/m2 CLR
06:34 49.0 °F 46.8 °F 30.32 in Calm     92 % 0.00 in 33.0 W/m2 CLR
06:39 49.2 °F 47.0 °F 30.32 in Calm     92 % 0.00 in 35.0 W/m2 CLR
06:44 49.3 °F 47.1 °F 30.32 in Calm     92 % 0.00 in 37.0 W/m2 CLR
06:49 49.6 °F 47.4 °F 30.32 in Calm     92 % 0.00 in 42.0 W/m2 CLR
06:54 49.6 °F 47.1 °F 30.32 in Calm     91 % 0.00 in 47.0 W/m2 CLR
06:59 49.6 °F 47.4 °F 30.33 in Calm     92 % 0.00 in 56.0 W/m2 CLR
07:04 50.1 °F 47.6 °F 30.33 in Calm     91 % 0.00 in 63.0 W/m2 CLR
07:09 50.2 °F 47.7 °F 30.33 in Calm     91 % 0.00 in 72.0 W/m2 CLR
07:14 50.5 °F 48.0 °F 30.34 in Calm     91 % 0.00 in 81.0 W/m2 CLR
07:19 51.0 °F 48.2 °F 30.33 in Calm     90 % 0.00 in 88.0 W/m2 CLR
07:20 50.9 °F 48.1 °F 30.33 in Calm     90 % 0.00 in 88.0 W/m2 CLR
07:25 51.4 °F 48.3 °F 30.34 in Calm     89 % 0.00 in 93.0 W/m2 CLR
07:30 51.5 °F 48.1 °F 30.34 in Calm     88 % 0.00 in 97.0 W/m2 CLR
07:34 51.9 °F 48.5 °F 30.35 in Calm     88 % 0.00 in 98.0 W/m2 CLR
07:40 52.1 °F 48.1 °F 30.34 in Calm     86 % 0.00 in 98.0 W/m2 CLR
07:45 52.5 °F 48.4 °F 30.34 in Calm   1.2 mph 86 % 0.00 in 98.0 W/m2 CLR
07:55 53.0 °F 48.3 °F 30.34 in Calm     84 % 0.00 in 98.0 W/m2 CLR
08:00 53.3 °F 48.3 °F 30.35 in Calm   1.2 mph 83 % 0.00 in 95.0 W/m2 CLR
08:05 53.7 °F 48.0 °F 30.35 in Calm   1.2 mph 81 % 0.00 in 91.0 W/m2 CLR
08:10 53.9 °F 47.9 °F 30.35 in Calm   1.2 mph 80 % 0.00 in 93.0 W/m2 CLR
08:15 54.2 °F 47.8 °F 30.35 in Calm   3.5 mph 79 % 0.00 in 98.0 W/m2 CLR
08:20 54.5 °F 47.1 °F 30.35 in NW 0.3 mph 3.5 mph 76 % 0.00 in 102.0 W/m2 CLR
08:25 54.8 °F 47.0 °F 30.36 in Calm   3.5 mph 75 % 0.00 in 105.0 W/m2 CLR
08:30 55.3 °F 47.5 °F 30.36 in NNW 1.2 mph 3.5 mph 75 % 0.00 in 105.0 W/m2 CLR
08:35 55.6 °F 47.4 °F 30.36 in NNW 1.3 mph 3.5 mph 74 % 0.00 in 105.0 W/m2 CLR
08:40 56.1 °F 47.9 °F 30.37 in NNW 1.1 mph 3.5 mph 74 % 0.00 in 95.0 W/m2 CLR
08:45 56.3 °F 47.4 °F 30.37 in North 0.6 mph 3.5 mph 72 % 0.00 in 93.0 W/m2 CLR
08:50 56.4 °F 47.1 °F 30.37 in North 0.1 mph 3.5 mph 71 % 0.00 in 90.0 W/m2 CLR
08:55 56.6 °F 46.9 °F 30.37 in Calm   3.5 mph 70 % 0.00 in 88.0 W/m2 CLR
09:00 57.1 °F 47.0 °F 30.36 in Calm   2.3 mph 69 % 0.00 in 90.0 W/m2 CLR
09:05 57.8 °F 47.7 °F 30.35 in Calm     69 % 0.00 in 257.0 W/m2 CLR
09:10 58.2 °F 46.5 °F 30.35 in Calm   3.5 mph 65 % 0.00 in 536.0 W/m2 CLR
09:15 58.7 °F 45.7 °F 30.35 in ESE 0.4 mph 3.5 mph 62 % 0.00 in 580.0 W/m2 CLR
09:20 59.3 °F 45.8 °F 30.35 in SE 0.2 mph 3.5 mph 61 % 0.00 in 624.0 W/m2 CLR
09:25 60.0 °F 44.7 °F 30.36 in Calm   3.5 mph 57 % 0.00 in 647.0 W/m2 CLR
09:30 60.1 °F 42.9 °F 30.36 in Calm   3.5 mph 53 % 0.00 in 664.0 W/m2 CLR
09:35 60.5 °F 40.2 °F 30.36 in South 1.8 mph 3.5 mph 47 % 0.00 in 668.0 W/m2 CLR
09:40 61.1 °F 41.8 °F 30.36 in NE 0.1 mph 3.5 mph 49 % 0.00 in 659.0 W/m2 CLR
09:45 61.5 °F 41.6 °F 30.35 in Calm   3.5 mph 48 % 0.00 in 673.0 W/m2 CLR
09:50 61.9 °F 37.9 °F 30.36 in East 1.1 mph 5.8 mph 41 % 0.00 in 721.0 W/m2 CLR
09:55 62.0 °F 38.0 °F 30.36 in SSE 1.3 mph 5.8 mph 41 % 0.00 in 701.0 W/m2 CLR
10:00 62.5 °F 38.5 °F 30.36 in ESE 0.1 mph 5.8 mph 41 % 0.00 in 738.0 W/m2 CLR
10:05 62.9 °F 38.2 °F 30.36 in East 0.8 mph 3.5 mph 40 % 0.00 in 724.0 W/m2 CLR
10:10 63.2 °F 37.8 °F 30.36 in Calm   3.5 mph 39 % 0.00 in 656.0 W/m2 CLR
10:15 63.4 °F 36.7 °F 30.36 in SSW 1.1 mph 3.5 mph 37 % 0.00 in 803.0 W/m2 CLR
10:20 63.8 °F 35.6 °F 30.36 in South 2.5 mph 6.9 mph 35 % 0.00 in 837.0 W/m2 CLR
10:25 64.2 °F 38.0 °F 30.35 in SE 2.0 mph 9.2 mph 38 % 0.00 in 831.0 W/m2 CLR
10:30 64.6 °F 37.7 °F 30.35 in SE 1.5 mph 9.2 mph 37 % 0.00 in 779.0 W/m2 CLR
10:35 64.3 °F 36.8 °F 30.35 in SSE 1.9 mph 8.1 mph 36 % 0.00 in 789.0 W/m2 CLR
10:40 65.1 °F 36.8 °F 30.35 in SE 1.7 mph 8.1 mph 35 % 0.00 in 812.0 W/m2 CLR
10:45 65.4 °F 39.1 °F 30.35 in SE 0.6 mph 6.9 mph 38 % 0.00 in 824.0 W/m2 CLR
10:50 65.5 °F 38.5 °F 30.35 in SSW 1.7 mph 6.9 mph 37 % 0.00 in 821.0 W/m2 CLR
10:55 65.0 °F 39.4 °F 30.34 in ESE 0.1 mph 6.9 mph 39 % 0.00 in 835.0 W/m2 CLR
11:00 65.5 °F 37.8 °F 30.35 in SSE 0.3 mph 4.6 mph 36 % 0.00 in 828.0 W/m2 CLR
11:05 65.8 °F 37.4 °F 30.35 in ESE 1.5 mph 5.8 mph 35 % 0.00 in 884.0 W/m2 CLR
11:10 66.1 °F 37.6 °F 30.35 in Calm   5.8 mph 35 % 0.00 in 891.0 W/m2 CLR
11:15 66.4 °F 37.2 °F 30.35 in SE 0.7 mph 5.8 mph 34 % 0.00 in 879.0 W/m2 CLR
11:20 66.6 °F 38.1 °F 30.35 in East 0.4 mph 4.6 mph 35 % 0.00 in 998.0 W/m2 CLR
11:25 66.6 °F 38.8 °F 30.34 in Calm   6.9 mph 36 % 0.00 in 742.0 W/m2 CLR
11:27 66.7 °F 40.3 °F 30.34 in Calm   6.9 mph 38 % 0.00 in 700.0 W/m2 CLR
11:32 66.7 °F 38.2 °F 30.34 in SW 4.5 mph 9.2 mph 35 % 0.00 in 629.0 W/m2 CLR
11:37 66.4 °F 39.3 °F 30.34 in ESE 1.0 mph 9.2 mph 37 % 0.00 in 512.0 W/m2 CLR
11:42 66.0 °F 38.3 °F 30.33 in SSE 0.1 mph 9.2 mph 36 % 0.00 in 541.0 W/m2 CLR
11:47 66.0 °F 38.3 °F 30.34 in SE 0.8 mph 8.1 mph 36 % 0.00 in 524.0 W/m2 CLR
11:52 66.0 °F 37.5 °F 30.34 in SSW 3.3 mph 8.1 mph 35 % 0.00 in 517.0 W/m2 CLR
11:57 66.4 °F 39.3 °F 30.34 in ESE 1.3 mph 8.1 mph 37 % 0.00 in 529.0 W/m2 CLR
12:02 66.5 °F 38.7 °F 30.33 in SSE 1.6 mph 8.1 mph 36 % 0.00 in 615.0 W/m2 FEW
12:07 66.5 °F 38.0 °F 30.33 in South 3.1 mph 9.2 mph 35 % 0.00 in 691.0 W/m2 FEW
12:12 67.0 °F 38.4 °F 30.33 in SSE 1.7 mph 12.7 mph 35 % 0.00 in 944.0 W/m2 FEW
12:17 67.6 °F 39.0 °F 30.32 in SSE 1.7 mph 12.7 mph 35 % 0.00 in 840.0 W/m2 FEW
12:27 68.0 °F 38.6 °F 30.32 in SSW 4.9 mph 11.5 mph 34 % 0.00 in 656.0 W/m2 FEW
12:32 67.8 °F 38.4 °F 30.32 in South 3.7 mph 11.5 mph 34 % 0.00 in 663.0 W/m2 FEW
12:37 67.8 °F 39.9 °F 30.32 in South 0.9 mph 11.5 mph 36 % 0.00 in 691.0 W/m2 FEW
12:42 67.7 °F 37.5 °F 30.32 in SSW 4.3 mph 11.5 mph 33 % 0.00 in 882.0 W/m2 FEW
12:47 67.7 °F 38.3 °F 30.32 in South 2.0 mph 11.5 mph 34 % 0.00 in 592.0 W/m2 FEW
12:52 67.4 °F 38.8 °F 30.32 in South 1.6 mph 10.4 mph 35 % 0.00 in 610.0 W/m2 FEW
12:57 67.2 °F 39.3 °F 30.31 in South 1.0 mph 17.3 mph 36 % 0.00 in 596.0 W/m2 FEW
13:02 67.7 °F 39.8 °F 30.31 in SSW 2.9 mph 17.3 mph 36 % 0.00 in 926.0 W/m2 OVC
13:07 67.9 °F 39.9 °F 30.31 in ESE 1.0 mph 9.2 mph 36 % 0.00 in 457.0 W/m2 OVC
13:12 67.4 °F 39.5 °F 30.31 in South 1.7 mph 9.2 mph 36 % 0.00 in 380.0 W/m2 OVC
13:17 67.4 °F 40.2 °F 30.31 in South 1.7 mph 6.9 mph 37 % 0.00 in 390.0 W/m2 OVC
13:22 67.2 °F 40.0 °F 30.30 in SE 0.1 mph 10.4 mph 37 % 0.00 in 394.0 W/m2 OVC
13:27 67.0 °F 40.5 °F 30.30 in SSW 1.9 mph 11.5 mph 38 % 0.00 in 315.0 W/m2 OVC
13:32 66.8 °F 40.4 °F 30.30 in SE 0.1 mph 11.5 mph 38 % 0.00 in 260.0 W/m2 OVC
13:37 66.6 °F 40.2 °F 30.30 in ESE 0.5 mph 8.1 mph 38 % 0.00 in 237.0 W/m2 OVC
13:42 66.9 °F 41.1 °F 30.29 in SE 0.9 mph 4.6 mph 39 % 0.00 in 257.0 W/m2 OVC
13:47 67.0 °F 41.2 °F 30.29 in SSW 0.5 mph 4.6 mph 39 % 0.00 in 297.0 W/m2 OVC
13:52 66.9 °F 40.5 °F 30.29 in ESE 3.4 mph 6.9 mph 38 % 0.00 in 373.0 W/m2 OVC
13:54 66.8 °F 40.4 °F 30.29 in SSW 1.6 mph 11.5 mph 38 % 0.00 in 380.0 W/m2 OVC
13:59 66.9 °F 41.1 °F 30.29 in SE 0.2 mph 11.5 mph 39 % 0.00 in 432.0 W/m2 OVC
14:04 67.2 °F 42.0 °F 30.29 in SSE 0.5 mph 8.1 mph 40 % 0.00 in 538.0 W/m2 OVC
14:09 67.5 °F 42.3 °F 30.29 in South 3.5 mph 8.1 mph 40 % 0.00 in 439.0 W/m2 OVC
14:14 67.7 °F 42.5 °F 30.29 in ESE 0.7 mph 12.7 mph 40 % 0.00 in 450.0 W/m2 OVC
14:19 68.0 °F 42.1 °F 30.28 in SSW 5.9 mph 12.7 mph 39 % 0.00 in 550.0 W/m2 OVC
14:24 68.0 °F 42.1 °F 30.28 in SSW 4.6 mph 10.4 mph 39 % 0.00 in 679.0 W/m2 OVC
14:29 68.3 °F 42.4 °F 30.28 in South 1.5 mph 11.5 mph 39 % 0.00 in 540.0 W/m2 OVC
14:34 68.8 °F 44.1 °F 30.28 in Calm   11.5 mph 41 % 0.00 in 578.0 W/m2 OVC
14:39 69.0 °F 42.3 °F 30.27 in South 1.5 mph 6.9 mph 38 % 0.00 in 381.0 W/m2 OVC
14:44 68.2 °F 42.3 °F 30.27 in ESE 1.8 mph 6.9 mph 39 % 0.00 in 352.0 W/m2 OVC
14:49 68.0 °F 42.8 °F 30.27 in South 1.6 mph 6.9 mph 40 % 0.00 in 431.0 W/m2 OVC
14:54 68.8 °F 44.1 °F 30.27 in SSE 0.3 mph 3.5 mph 41 % 0.00 in 552.0 W/m2 OVC
15:04 68.8 °F 42.8 °F 30.27 in South 0.6 mph 3.5 mph 39 % 0.00 in 668.0 W/m2 OVC
15:05 68.8 °F 42.8 °F 30.27 in South 0.5 mph 3.5 mph 39 % 0.00 in 668.0 W/m2 OVC
15:10 69.1 °F 43.1 °F 30.27 in Calm   9.2 mph 39 % 0.00 in 330.0 W/m2 OVC
15:15 68.5 °F 41.2 °F 30.26 in SSE 2.5 mph 9.2 mph 37 % 0.00 in 362.0 W/m2 OVC
15:20 68.9 °F 42.9 °F 30.26 in South 0.6 mph 8.1 mph 39 % 0.00 in 650.0 W/m2 OVC
15:25 69.5 °F 42.8 °F 30.26 in South 1.0 mph 9.2 mph 38 % 0.00 in 751.0 W/m2 OVC
15:30 69.4 °F 42.0 °F 30.26 in SSE 1.4 mph 9.2 mph 37 % 0.00 in 281.0 W/m2 OVC
15:35 69.0 °F 42.3 °F 30.26 in South 0.5 mph 11.5 mph 38 % 0.00 in 359.0 W/m2 OVC
15:40 68.7 °F 41.4 °F 30.26 in South 3.6 mph 11.5 mph 37 % 0.00 in 362.0 W/m2 OVC
15:45 68.7 °F 41.4 °F 30.26 in SSW 0.4 mph 9.2 mph 37 % 0.00 in 385.0 W/m2 OVC
15:50 69.0 °F 43.0 °F 30.25 in Calm   9.2 mph 39 % 0.00 in 387.0 W/m2 OVC
15:55 69.1 °F 41.7 °F 30.26 in SSW 5.7 mph 12.7 mph 37 % 0.00 in 381.0 W/m2 OVC
16:00 69.5 °F 42.1 °F 30.26 in SSW 6.7 mph 12.7 mph 37 % 0.00 in 316.0 W/m2 OVC
16:05 69.2 °F 41.1 °F 30.26 in SSW 4.1 mph 16.1 mph 36 % 0.00 in 272.0 W/m2 BKN
16:07 69.3 °F 41.2 °F 30.26 in South 4.9 mph 16.1 mph 36 % 0.00 in 297.0 W/m2 BKN
16:12 68.9 °F 40.8 °F 30.25 in South 3.3 mph 16.1 mph 36 % 0.00 in 287.0 W/m2 BKN
16:17 68.6 °F 41.3 °F 30.25 in South 1.8 mph 11.5 mph 37 % 0.00 in 207.0 W/m2 BKN
16:22 68.6 °F 41.3 °F 30.25 in ESE 1.6 mph 11.5 mph 37 % 0.00 in 218.0 W/m2 BKN
16:27 68.3 °F 41.7 °F 30.25 in SSE 0.2 mph 9.2 mph 38 % 0.00 in 165.0 W/m2 BKN
16:32 68.2 °F 41.6 °F 30.24 in SSE 0.2 mph 6.9 mph 38 % 0.00 in 193.0 W/m2 BKN
16:37 68.3 °F 41.0 °F 30.23 in ESE 0.3 mph 6.9 mph 37 % 0.00 in 271.0 W/m2 BKN
16:40 68.4 °F 41.1 °F 30.23 in SSE 1.2 mph 9.2 mph 37 % 0.00 in 348.0 W/m2 BKN
16:45 68.7 °F 41.4 °F 30.23 in East 0.3 mph 9.2 mph 37 % 0.00 in 322.0 W/m2 BKN
16:50 68.6 °F 41.3 °F 30.23 in SSE 0.4 mph 9.2 mph 37 % 0.00 in 276.0 W/m2 BKN
16:55 68.5 °F 40.5 °F 30.23 in South 3.7 mph 9.2 mph 36 % 0.00 in 236.0 W/m2 BKN
17:00 68.5 °F 41.2 °F 30.23 in Calm   9.2 mph 37 % 0.00 in 276.0 W/m2 BKN
17:05 68.6 °F 41.3 °F 30.23 in South 2.0 mph 9.2 mph 37 % 0.00 in 276.0 W/m2 OVC
17:10 68.8 °F 41.5 °F 30.23 in SSW 3.0 mph 8.1 mph 37 % 0.00 in 206.0 W/m2 OVC
17:15 68.6 °F 41.3 °F 30.23 in South 6.8 mph 11.5 mph 37 % 0.00 in 171.0 W/m2 OVC
17:20 68.4 °F 41.1 °F 30.23 in SSW 0.7 mph 11.5 mph 37 % 0.00 in 118.0 W/m2 OVC
17:25 68.2 °F 40.9 °F 30.23 in South 3.5 mph 11.5 mph 37 % 0.00 in 128.0 W/m2 OVC
17:30 68.2 °F 40.2 °F 30.23 in SSW 5.3 mph 8.1 mph 36 % 0.00 in 186.0 W/m2 OVC
17:35 68.2 °F 39.5 °F 30.23 in South 4.5 mph 12.7 mph 35 % 0.00 in 169.0 W/m2 OVC
17:40 68.0 °F 40.0 °F 30.23 in SW 0.5 mph 12.7 mph 36 % 0.00 in 171.0 W/m2 OVC
17:45 68.1 °F 40.1 °F 30.23 in South 2.3 mph 12.7 mph 36 % 0.00 in 153.0 W/m2 OVC
17:50 67.8 °F 39.1 °F 30.22 in South 1.2 mph 10.4 mph 35 % 0.00 in 97.0 W/m2 OVC
17:55 67.7 °F 39.8 °F 30.22 in SE 0.4 mph 10.4 mph 36 % 0.00 in 98.0 W/m2 OVC
18:00 67.5 °F 39.6 °F 30.22 in Calm   10.4 mph 36 % 0.00 in 97.0 W/m2 OVC
18:05 67.3 °F 38.7 °F 30.22 in SSW 0.3 mph 9.2 mph 35 % 0.00 in 86.0 W/m2 OVC
18:11 67.6 °F 39.0 °F 30.22 in SSW 0.8 mph 6.9 mph 35 % 0.00 in 74.0 W/m2 OVC
18:16 67.2 °F 39.3 °F 30.22 in Calm   10.4 mph 36 % 0.00 in 65.0 W/m2 OVC
18:21 66.9 °F 39.1 °F 30.22 in South 0.5 mph 10.4 mph 36 % 0.00 in 102.0 W/m2 OVC
18:26 67.2 °F 38.6 °F 30.23 in SSW 1.4 mph 5.8 mph 35 % 0.00 in 93.0 W/m2 OVC
18:31 67.0 °F 39.1 °F 30.22 in SSW 0.3 mph 5.8 mph 36 % 0.00 in 58.0 W/m2 OVC
18:36 66.7 °F 38.9 °F 30.22 in SE 0.2 mph 5.8 mph 36 % 0.00 in 70.0 W/m2 OVC
18:41 66.7 °F 39.6 °F 30.22 in SSW 0.7 mph 3.5 mph 37 % 0.00 in 72.0 W/m2 OVC
18:46 66.5 °F 38.7 °F 30.22 in South 1.3 mph 3.5 mph 36 % 0.00 in 39.0 W/m2 OVC
18:51 66.2 °F 38.4 °F 30.22 in ESE 0.7 mph 9.2 mph 36 % 0.00 in 40.0 W/m2 OVC
18:56 66.1 °F 37.6 °F 30.22 in South 2.1 mph 9.2 mph 35 % 0.00 in 46.0 W/m2 OVC
19:01 66.2 °F 37.7 °F 30.22 in SSW 1.0 mph 5.8 mph 35 % 0.00 in 26.0 W/m2 OVC
19:06 66.0 °F 36.8 °F 30.22 in Calm   5.8 mph 34 % 0.00 in 18.0 W/m2 OVC
19:11 65.9 °F 36.7 °F 30.22 in SSW 0.2 mph 5.8 mph 34 % 0.00 in 12.0 W/m2 OVC
19:16 65.7 °F 36.5 °F 30.22 in South 0.3 mph 5.8 mph 34 % 0.00 in 14.0 W/m2 OVC
19:21 65.6 °F 36.5 °F 30.22 in ESE 0.3 mph 4.6 mph 34 % 0.00 in 16.0 W/m2 OVC
19:26 65.5 °F 37.1 °F 30.22 in ESE 0.3 mph 4.6 mph 35 % 0.00 in 12.0 W/m2 OVC
19:31 65.4 °F 37.7 °F 30.22 in SSW 0.2 mph 3.5 mph 36 % 0.00 in 12.0 W/m2 OVC
19:36 65.2 °F 36.8 °F 30.22 in SSE 0.4 mph 3.5 mph 35 % 0.00 in 7.0 W/m2 OVC
19:41 65.1 °F 36.8 °F 30.22 in SSE 0.1 mph 3.5 mph 35 % 0.00 in 5.0 W/m2 OVC
19:47 65.0 °F 36.7 °F 30.23 in SSE 1.4 mph 5.8 mph 35 % 0.00 in 0.0 W/m2 OVC
19:52 64.8 °F 37.2 °F 30.23 in Calm   6.9 mph 36 % 0.00 in 0.0 W/m2 OVC
19:57 64.6 °F 37.0 °F 30.22 in SSE 0.4 mph 6.9 mph 36 % 0.00 in 0.0 W/m2 OVC
20:02 64.5 °F 36.9 °F 30.22 in SE 0.1 mph 5.8 mph 36 % 0.00 in 0.0 W/m2 OVC
20:07 64.4 °F 36.8 °F 30.22 in SE 0.1 mph 3.5 mph 36 % 0.00 in 0.0 W/m2 OVC
20:12 64.3 °F 37.5 °F 30.22 in Calm   3.5 mph 37 % 0.00 in 0.0 W/m2 OVC
20:17 64.3 °F 37.5 °F 30.22 in ESE 0.6 mph 3.5 mph 37 % 0.00 in 0.0 W/m2 OVC
20:22 64.2 °F 38.0 °F 30.22 in SE 0.2 mph 3.5 mph 38 % 0.00 in 0.0 W/m2 OVC
20:27 64.1 °F 38.0 °F 30.22 in SSW 0.2 mph 3.5 mph 38 % 0.00 in 0.0 W/m2 OVC
20:32 63.9 °F 37.8 °F 30.22 in Calm   3.5 mph 38 % 0.00 in 0.0 W/m2 OVC
20:37 63.7 °F 38.3 °F 30.22 in SSW 0.1 mph 4.6 mph 39 % 0.00 in 0.0 W/m2 OVC
20:42 63.6 °F 38.2 °F 30.23 in South 0.2 mph 4.6 mph 39 % 0.00 in 0.0 W/m2 OVC
20:47 63.5 °F 38.1 °F 30.23 in SSE 0.5 mph 3.5 mph 39 % 0.00 in 0.0 W/m2 OVC
20:52 63.4 °F 38.0 °F 30.23 in SSE 0.5 mph 6.9 mph 39 % 0.00 in 0.0 W/m2 OVC
20:57 63.2 °F 38.5 °F 30.23 in Calm   6.9 mph 40 % 0.00 in 0.0 W/m2 OVC
21:02 63.1 °F 39.0 °F 30.23 in SE 0.7 mph 9.2 mph 41 % 0.00 in 0.0 W/m2 OVC
21:04 63.1 °F 39.0 °F 30.23 in South 1.3 mph 9.2 mph 41 % 0.00 in 0.0 W/m2 OVC
21:09 63.2 °F 39.1 °F 30.24 in South 1.1 mph 9.2 mph 41 % 0.00 in 0.0 W/m2 OVC
21:14 62.9 °F 38.8 °F 30.23 in ESE 1.3 mph 8.1 mph 41 % 0.00 in 0.0 W/m2 OVC
21:19 62.7 °F 39.3 °F 30.24 in South 1.1 mph 8.1 mph 42 % 0.00 in 0.0 W/m2 OVC
21:24 62.6 °F 39.2 °F 30.24 in ESE 0.1 mph 8.1 mph 42 % 0.00 in 0.0 W/m2 OVC
21:29 62.5 °F 39.1 °F 30.24 in SSE 1.5 mph 6.9 mph 42 % 0.00 in 0.0 W/m2 OVC
21:34 62.4 °F 39.0 °F 30.24 in SE 0.3 mph 6.9 mph 42 % 0.00 in 0.0 W/m2 OVC
21:39 62.3 °F 39.5 °F 30.23 in Calm   5.8 mph 43 % 0.00 in 0.0 W/m2 OVC
21:44 62.3 °F 40.1 °F 30.23 in Calm   2.3 mph 44 % 0.00 in 0.0 W/m2 OVC
21:49 62.1 °F 39.9 °F 30.23 in South 0.2 mph 1.2 mph 44 % 0.00 in 0.0 W/m2 OVC
21:55 62.1 °F 40.5 °F 30.23 in SSW 0.1 mph 3.5 mph 45 % 0.00 in 0.0 W/m2 OVC
22:00 61.9 °F 40.3 °F 30.23 in Calm   3.5 mph 45 % 0.00 in 0.0 W/m2 OVC
22:05 61.8 °F 40.8 °F 30.23 in Calm   4.0 mph 46 % 0.00 in 0.0 W/m2 OVC
22:10 61.8 °F 40.8 °F 30.23 in Calm   3.5 mph 46 % 0.00 in 0.0 W/m2 OVC
22:15 61.7 °F 41.3 °F 30.23 in Calm   2.3 mph 47 % 0.00 in 0.0 W/m2 OVC
22:20 61.5 °F 41.6 °F 30.23 in Calm   2.3 mph 48 % 0.00 in 0.0 W/m2 OVC
22:25 61.4 °F 41.5 °F 30.23 in SE 0.4 mph 2.3 mph 48 % 0.00 in 0.0 W/m2 OVC
22:30 61.3 °F 42.0 °F 30.23 in South 1.7 mph 8.1 mph 49 % 0.00 in 0.0 W/m2 OVC
22:35 61.2 °F 41.9 °F 30.23 in Calm   8.1 mph 49 % 0.00 in 0.0 W/m2 OVC
22:40 61.2 °F 42.4 °F 30.23 in SSW 0.2 mph 8.1 mph 50 % 0.00 in 0.0 W/m2 OVC
22:45 61.1 °F 42.8 °F 30.22 in Calm   3.5 mph 51 % 0.00 in 0.0 W/m2 OVC
22:50 61.1 °F 42.8 °F 30.22 in South 0.1 mph 4.6 mph 51 % 0.00 in 0.0 W/m2 OVC
22:55 60.9 °F 43.1 °F 30.22 in Calm   4.6 mph 52 % 0.00 in 0.0 W/m2 OVC
23:00 60.8 °F 43.6 °F 30.22 in Calm   3.5 mph 53 % 0.00 in 0.0 W/m2 OVC
23:05 60.6 °F 43.9 °F 30.22 in Calm   3.5 mph 54 % 0.00 in 0.0 W/m2 OVC
23:10 60.5 °F 44.2 °F 30.22 in Calm   3.5 mph 55 % 0.00 in 0.0 W/m2 OVC
23:15 60.3 °F 44.1 °F 30.22 in Calm   3.5 mph 55 % 0.00 in 0.0 W/m2 OVC
23:20 60.3 °F 44.5 °F 30.22 in Calm   1.2 mph 56 % 0.00 in 0.0 W/m2 OVC
23:25 60.5 °F 44.2 °F 30.22 in Calm   3.5 mph 55 % 0.00 in 0.0 W/m2 OVC
23:30 60.3 °F 44.1 °F 30.21 in SSW 0.3 mph 3.5 mph 55 % 0.00 in 0.0 W/m2 OVC
23:35 60.3 °F 43.6 °F 30.21 in SSW 0.4 mph 4.6 mph 54 % 0.00 in 0.0 W/m2 OVC
23:40 60.3 °F 43.1 °F 30.22 in SSW 1.8 mph 5.8 mph 53 % 0.00 in 0.0 W/m2 OVC
23:45 60.2 °F 42.5 °F 30.22 in Calm   9.2 mph 52 % 0.00 in 0.0 W/m2 OVC
23:50 60.1 °F 42.4 °F 30.22 in SSW 1.9 mph 9.2 mph 52 % 0.00 in 0.0 W/m2 OVC
23:55 60.0 °F 42.3 °F 30.22 in SW 3.9 mph 9.2 mph 52 % 0.00 in 0.0 W/m2 OVC
Air Products Campus Weather
Compliments of Weather Underground - 3.5 mb